createdAt,value
2019-05-03T00:02:06.931Z,79.00
2019-05-03T00:04:36.808Z,79.40
2019-05-03T00:07:05.526Z,79.50
2019-05-03T00:09:34.302Z,79.50
2019-05-03T00:12:03.078Z,79.40
2019-05-03T00:14:32.543Z,79.50
2019-05-03T00:17:02.305Z,79.40
2019-05-03T00:19:32.767Z,80.20
2019-05-03T00:22:02.100Z,80.20
2019-05-03T00:24:32.087Z,80.30
2019-05-03T00:27:01.943Z,80.70
2019-05-03T00:29:32.508Z,80.30
2019-05-03T00:32:01.922Z,80.60
2019-05-03T00:34:35.043Z,80.40
2019-05-03T00:37:05.444Z,80.50
2019-05-03T00:39:35.909Z,81.20
2019-05-03T00:42:04.697Z,81.10
2019-05-03T00:44:33.519Z,80.90
2019-05-03T00:47:02.383Z,80.90
2019-05-03T00:49:32.084Z,81.30
2019-05-03T00:52:02.351Z,80.40
2019-05-03T00:54:31.675Z,80.50
2019-05-03T00:57:02.556Z,80.40
2019-05-03T00:59:32.648Z,80.90
2019-05-03T01:02:02.711Z,80.70
2019-05-03T01:04:31.837Z,80.50
2019-05-03T01:07:02.295Z,80.50
2019-05-03T01:09:31.695Z,80.40
2019-05-03T01:12:01.946Z,80.60
2019-05-03T01:14:31.693Z,80.60
2019-05-03T01:17:02.513Z,80.60
2019-05-03T01:19:32.059Z,80.30
2019-05-03T01:22:01.957Z,80.70
2019-05-03T01:24:32.300Z,80.70
2019-05-03T01:27:02.070Z,81.00
2019-05-03T01:29:32.245Z,81.40
2019-05-03T01:32:02.357Z,81.60
2019-05-03T01:34:32.569Z,81.80
2019-05-03T01:37:02.639Z,82.00
2019-05-03T01:39:31.775Z,81.90
2019-05-03T01:42:02.514Z,81.80
2019-05-03T01:44:32.493Z,81.60
2019-05-03T01:47:02.867Z,81.60
2019-05-03T01:49:33.165Z,81.70
2019-05-03T01:52:03.442Z,81.80
2019-05-03T01:54:32.413Z,81.70
2019-05-03T01:57:02.440Z,81.30
2019-05-03T01:59:32.063Z,81.10
2019-05-03T02:02:02.556Z,80.80
2019-05-03T02:04:50.453Z,80.80
2019-05-03T02:07:22.234Z,80.70
2019-05-03T02:09:51.985Z,81.30
2019-05-03T02:12:22.193Z,81.10
2019-05-03T02:14:51.678Z,81.20
2019-05-03T02:17:22.553Z,81.30
2019-05-03T02:19:52.719Z,81.30
2019-05-03T02:22:22.570Z,81.30
2019-05-03T02:24:52.671Z,81.90
2019-05-03T02:27:21.995Z,82.10
2019-05-03T02:29:52.410Z,82.10
2019-05-03T02:32:23.290Z,82.10
2019-05-03T02:34:53.530Z,81.80
2019-05-03T02:37:22.517Z,82.90
2019-05-03T02:39:53.867Z,82.30
2019-05-03T02:42:22.588Z,82.40
2019-05-03T02:44:51.697Z,82.10
2019-05-03T02:47:27.744Z,82.20
2019-05-03T02:49:58.169Z,82.50
2019-05-03T02:52:37.235Z,82.90
2019-05-03T02:55:09.945Z,83.00
2019-05-03T02:57:38.949Z,82.90
2019-05-03T03:00:09.171Z,83.10
2019-05-03T03:02:38.168Z,82.80
2019-05-03T03:05:06.915Z,82.90
2019-05-03T03:07:37.689Z,83.00
2019-05-03T03:10:11.556Z,83.90
2019-05-03T03:12:40.304Z,83.90
2019-05-03T03:15:09.937Z,83.80
2019-05-03T03:17:38.673Z,83.10
2019-05-03T03:20:08.040Z,83.00
2019-05-03T03:22:39.943Z,83.00
2019-05-03T03:25:10.487Z,83.40
2019-05-03T03:27:40.556Z,83.30
2019-05-03T03:30:29.869Z,83.10
2019-05-03T03:32:59.500Z,83.00
2019-05-03T03:35:30.936Z,83.40
2019-05-03T03:37:59.712Z,83.60
2019-05-03T03:40:28.916Z,83.80
2019-05-03T03:42:57.676Z,84.00
2019-05-03T03:45:26.448Z,84.40
2019-05-03T03:47:56.407Z,84.70
2019-05-03T03:50:26.066Z,85.20
2019-05-03T03:52:55.751Z,85.70
2019-05-03T03:55:26.379Z,86.30
2019-05-03T03:57:55.793Z,86.30
2019-05-03T04:00:25.863Z,86.40
2019-05-03T04:02:55.414Z,86.40
2019-05-03T04:05:25.406Z,86.30
2019-05-03T04:07:56.129Z,85.90
2019-05-03T04:10:26.162Z,85.80
2019-05-03T04:12:55.985Z,85.60
2019-05-03T04:15:29.243Z,85.50
2019-05-03T04:18:02.267Z,85.20
2019-05-03T04:20:32.552Z,84.80
2019-05-03T04:23:01.338Z,85.10
2019-05-03T04:25:30.078Z,84.20
2019-05-03T04:27:58.886Z,84.30
2019-05-03T04:30:27.679Z,84.10
2019-05-03T04:32:56.722Z,83.90
2019-05-03T04:35:26.519Z,84.50
2019-05-03T04:37:56.071Z,83.60
2019-05-03T04:40:25.971Z,84.10
2019-05-03T04:42:55.747Z,83.60
2019-05-03T04:45:26.031Z,83.80
2019-05-03T04:47:56.077Z,83.70
2019-05-03T04:50:25.792Z,83.70
2019-05-03T04:52:56.709Z,83.20
2019-05-03T04:55:26.614Z,83.00
2019-05-03T04:57:56.220Z,83.10
2019-05-03T05:00:25.827Z,84.90
2019-05-03T05:02:55.345Z,84.50
2019-05-03T05:05:26.085Z,85.10
2019-05-03T05:07:55.718Z,85.80
2019-05-03T05:10:26.156Z,85.90
2019-05-03T05:12:55.328Z,86.40
2019-05-03T05:15:26.525Z,85.80
2019-05-03T05:18:02.407Z,86.10
2019-05-03T05:20:35.678Z,85.70
2019-05-03T05:23:04.893Z,85.50
2019-05-03T05:25:38.055Z,85.80
2019-05-03T05:28:25.089Z,85.40
2019-05-03T05:30:54.694Z,85.20
2019-05-03T05:33:25.211Z,84.90
2019-05-03T05:35:54.659Z,84.90
2019-05-03T05:38:25.333Z,85.00
2019-05-03T05:40:55.480Z,85.20
2019-05-03T05:43:25.482Z,84.90
2019-05-03T05:45:55.378Z,85.40
2019-05-03T05:48:35.767Z,84.30
2019-05-03T05:51:05.108Z,84.60
2019-05-03T05:53:35.718Z,85.60
2019-05-03T05:56:06.568Z,84.20
2019-05-03T05:58:36.860Z,84.30
2019-05-03T06:01:14.594Z,83.80
2019-05-03T06:03:44.876Z,84.50
2019-05-03T06:06:15.372Z,84.40
2019-05-03T06:08:45.718Z,85.30
2019-05-03T06:11:16.190Z,84.00
2019-05-03T06:13:46.692Z,84.90
2019-05-03T06:16:26.031Z,85.00
2019-05-03T06:18:56.342Z,84.70
2019-05-03T06:21:26.838Z,85.20
2019-05-03T06:24:14.765Z,84.40
2019-05-03T06:26:48.319Z,85.30
2019-05-03T06:29:18.333Z,84.10
2019-05-03T06:31:55.072Z,84.40
2019-05-03T06:34:25.193Z,84.60
2019-05-03T06:36:55.593Z,84.70
2019-05-03T06:39:25.091Z,84.60
2019-05-03T06:41:55.020Z,83.80
2019-05-03T06:44:28.269Z,84.10
2019-05-03T06:46:55.264Z,84.30
2019-05-03T06:49:25.493Z,84.60
2019-05-03T06:51:54.706Z,84.00
2019-05-03T06:54:26.878Z,84.00
2019-05-03T06:56:55.535Z,83.80
2019-05-03T06:59:35.923Z,83.50
2019-05-03T07:02:25.166Z,84.10
2019-05-03T07:04:56.212Z,84.00
2019-05-03T07:07:35.577Z,82.50
2019-05-03T07:10:08.230Z,81.90
2019-05-03T07:12:54.748Z,81.70
2019-05-03T07:15:25.162Z,82.60
2019-05-03T07:17:55.663Z,81.90
2019-05-03T07:20:25.652Z,81.00
2019-05-03T07:22:55.697Z,82.00
2019-05-03T07:25:25.601Z,82.00
2019-05-03T07:27:55.507Z,81.90
2019-05-03T07:30:24.890Z,81.30
2019-05-03T07:32:55.340Z,82.30
2019-05-03T07:35:25.146Z,82.30
2019-05-03T07:37:55.319Z,81.70
2019-05-03T07:40:25.370Z,82.50
2019-05-03T07:42:55.414Z,81.70
2019-05-03T07:45:25.715Z,81.50
2019-05-03T07:47:55.828Z,82.30
2019-05-03T07:50:25.810Z,82.10
2019-05-03T07:52:55.637Z,82.20
2019-05-03T07:55:45.529Z,82.40
2019-05-03T07:58:18.267Z,81.70
2019-05-03T08:00:48.102Z,81.60
2019-05-03T08:03:17.125Z,81.00
2019-05-03T08:05:46.010Z,80.80
2019-05-03T08:08:15.079Z,79.60
2019-05-03T08:10:44.939Z,80.50
2019-05-03T08:13:15.013Z,79.80
2019-05-03T08:15:45.202Z,78.70
2019-05-03T08:18:15.349Z,78.10
2019-05-03T08:20:45.144Z,76.60
2019-05-03T08:23:26.806Z,76.20
2019-05-03T08:25:44.761Z,77.30
2019-05-03T08:28:14.570Z,75.10
2019-05-03T08:30:54.393Z,75.90
2019-05-03T08:33:30.772Z,74.40
2019-05-03T08:36:00.187Z,73.30
2019-05-03T08:38:28.908Z,71.70
2019-05-03T08:41:00.248Z,71.40
2019-05-03T08:43:28.977Z,71.30
2019-05-03T08:45:57.936Z,69.20
2019-05-03T08:48:26.733Z,68.60
2019-05-03T08:50:55.599Z,67.20
2019-05-03T08:53:25.690Z,68.00
2019-05-03T08:55:55.266Z,67.50
2019-05-03T08:58:25.619Z,66.20
2019-05-03T09:00:54.769Z,65.40
2019-05-03T09:03:24.975Z,66.20
2019-05-03T09:05:56.356Z,65.50
2019-05-03T09:08:24.859Z,65.40
2019-05-03T09:10:58.645Z,63.40
2019-05-03T09:13:28.937Z,64.60
2019-05-03T09:15:57.713Z,61.80
2019-05-03T09:18:26.652Z,60.30
2019-05-03T09:20:55.603Z,59.70
2019-05-03T09:23:25.958Z,60.30
2019-05-03T09:25:55.078Z,60.00
2019-05-03T09:28:26.514Z,61.70
2019-05-03T09:30:55.258Z,59.10
2019-05-03T09:33:24.877Z,60.40
2019-05-03T09:35:55.018Z,61.60
2019-05-03T09:38:25.659Z,59.40
2019-05-03T09:40:54.644Z,58.30
2019-05-03T09:43:25.113Z,57.80
2019-05-03T09:45:54.696Z,59.10
2019-05-03T09:48:25.463Z,59.10
2019-05-03T09:50:55.683Z,56.50
2019-05-03T09:53:26.234Z,56.00
2019-05-03T09:55:55.613Z,54.80
2019-05-03T09:58:26.341Z,56.50
2019-05-03T10:00:55.546Z,55.30
2019-05-03T10:03:24.483Z,54.60
2019-05-03T10:05:55.231Z,55.80
2019-05-03T10:08:25.422Z,54.60
2019-05-03T10:11:12.124Z,56.20
2019-05-03T10:13:41.949Z,56.60
2019-05-03T10:16:12.034Z,54.40
2019-05-03T10:18:40.861Z,56.60
2019-05-03T10:21:09.560Z,53.90
2019-05-03T10:23:39.531Z,53.50
2019-05-03T10:26:08.575Z,54.50
2019-05-03T10:28:37.432Z,54.30
2019-05-03T10:31:07.745Z,52.00
2019-05-03T10:33:38.667Z,51.10
2019-05-03T10:36:07.374Z,50.00
2019-05-03T10:38:36.106Z,51.60
2019-05-03T10:41:05.838Z,51.00
2019-05-03T10:43:35.444Z,51.80
2019-05-03T10:46:05.234Z,53.10
2019-05-03T10:48:35.535Z,53.40
2019-05-03T10:51:04.978Z,51.00
2019-05-03T10:53:38.184Z,48.30
2019-05-03T10:56:22.758Z,48.80
2019-05-03T10:58:55.819Z,48.20
2019-05-03T11:01:32.692Z,51.00
2019-05-03T11:04:01.412Z,48.60
2019-05-03T11:06:30.138Z,46.60
2019-05-03T11:09:00.491Z,46.70
2019-05-03T11:11:29.211Z,48.10
2019-05-03T11:13:58.710Z,47.60
2019-05-03T11:16:28.202Z,45.30
2019-05-03T11:18:57.169Z,46.00
2019-05-03T11:21:30.561Z,46.10
2019-05-03T11:23:56.712Z,47.00
2019-05-03T11:26:25.531Z,47.60
2019-05-03T11:28:59.224Z,48.50
2019-05-03T11:31:44.442Z,48.20
2019-05-03T11:34:15.108Z,49.90
2019-05-03T11:36:48.493Z,49.90
2019-05-03T11:39:17.692Z,49.70
2019-05-03T11:41:48.187Z,51.90
2019-05-03T11:44:36.212Z,52.90
2019-05-03T11:47:05.774Z,52.60
2019-05-03T11:49:34.936Z,52.00
2019-05-03T11:52:06.262Z,53.30
2019-05-03T11:54:35.922Z,53.70
2019-05-03T11:57:06.464Z,54.20
2019-05-03T11:59:35.244Z,56.30
2019-05-03T12:02:12.018Z,58.10
2019-05-03T12:04:40.755Z,59.50
2019-05-03T12:07:09.542Z,65.40
2019-05-03T12:09:38.237Z,62.00
2019-05-03T12:12:08.533Z,62.60
2019-05-03T12:14:37.386Z,56.10
2019-05-03T12:17:18.496Z,57.40
2019-05-03T12:19:39.114Z,65.00
2019-05-03T12:22:10.125Z,63.10
2019-05-03T12:24:39.656Z,61.70
2019-05-03T12:27:08.866Z,60.80
2019-05-03T12:29:37.636Z,64.40
2019-05-03T12:32:06.355Z,61.60
2019-05-03T12:34:35.377Z,61.00
2019-05-03T12:37:05.367Z,58.10
2019-05-03T12:39:35.835Z,59.50
2019-05-03T12:42:05.858Z,54.60
2019-05-03T12:44:35.455Z,54.50
2019-05-03T12:47:05.982Z,55.20
2019-05-03T12:49:35.788Z,58.20
2019-05-03T12:52:05.784Z,57.20
2019-05-03T12:54:35.629Z,54.50
2019-05-03T12:57:05.207Z,56.70
2019-05-03T12:59:41.606Z,57.50
2019-05-03T13:02:20.973Z,54.30
2019-05-03T13:04:52.031Z,55.10
2019-05-03T13:07:40.023Z,55.90
2019-05-03T13:10:08.827Z,53.20
2019-05-03T13:12:49.832Z,53.70
2019-05-03T13:15:08.522Z,52.30
2019-05-03T13:17:38.119Z,55.30
2019-05-03T13:20:11.899Z,56.00
2019-05-03T13:22:40.652Z,55.40
2019-05-03T13:25:10.304Z,55.00
2019-05-03T13:27:39.271Z,54.90
2019-05-03T13:30:08.708Z,55.20
2019-05-03T13:32:37.627Z,55.00
2019-05-03T13:35:06.946Z,56.00
2019-05-03T13:37:36.760Z,56.90
2019-05-03T13:40:08.603Z,56.90
2019-05-03T13:42:37.513Z,52.70
2019-05-03T13:45:07.137Z,52.70
2019-05-03T13:47:35.919Z,51.20
2019-05-03T13:50:06.688Z,47.20
2019-05-03T13:52:35.438Z,49.40
2019-05-03T13:55:06.780Z,46.90
2019-05-03T13:57:36.524Z,45.80
2019-05-03T14:00:08.672Z,45.20
2019-05-03T14:02:37.481Z,43.70
2019-05-03T14:05:07.279Z,41.70
2019-05-03T14:07:36.980Z,42.30
2019-05-03T14:10:06.591Z,43.00
2019-05-03T14:12:35.310Z,44.10
2019-05-03T14:15:06.476Z,42.10
2019-05-03T14:17:35.269Z,42.70
2019-05-03T14:20:14.625Z,42.30
2019-05-03T14:22:44.340Z,43.60
2019-05-03T14:25:14.694Z,44.80
2019-05-03T14:27:45.430Z,45.50
2019-05-03T14:30:14.582Z,44.90
2019-05-03T14:32:45.304Z,45.40
2019-05-03T14:35:15.926Z,46.70
2019-05-03T14:37:46.012Z,47.70
2019-05-03T14:40:15.108Z,47.90
2019-05-03T14:42:44.625Z,46.90
2019-05-03T14:45:15.112Z,46.40
2019-05-03T14:47:44.109Z,48.10
2019-05-03T14:50:14.954Z,48.70
2019-05-03T14:52:45.485Z,49.10
2019-05-03T14:55:25.189Z,50.40
2019-05-03T14:58:04.499Z,50.30
2019-05-03T15:00:47.287Z,51.20
2019-05-03T15:03:17.958Z,51.50
2019-05-03T15:05:46.809Z,51.20
2019-05-03T15:08:15.504Z,48.10
2019-05-03T15:10:45.618Z,50.70
2019-05-03T15:13:15.904Z,48.10
2019-05-03T15:15:45.493Z,49.70
2019-05-03T15:18:14.936Z,46.60
2019-05-03T15:20:45.317Z,47.00
2019-05-03T15:23:14.667Z,48.00
2019-05-03T15:25:45.281Z,47.60
2019-05-03T15:28:14.095Z,46.80
2019-05-03T15:30:44.504Z,47.60
2019-05-03T15:33:15.035Z,47.40
2019-05-03T15:35:46.553Z,47.70
2019-05-03T15:38:14.524Z,48.40
2019-05-03T15:40:43.473Z,48.50
2019-05-03T15:43:16.600Z,48.30
2019-05-03T15:45:49.724Z,49.70
2019-05-03T15:48:24.583Z,50.10
2019-05-03T15:50:55.390Z,50.20
2019-05-03T15:53:24.745Z,51.20
2019-05-03T15:55:55.078Z,50.60
2019-05-03T15:58:24.854Z,49.80
2019-05-03T16:00:55.350Z,50.90
2019-05-03T16:03:25.231Z,50.10
2019-05-03T16:05:55.658Z,51.00
2019-05-03T16:08:24.914Z,51.00
2019-05-03T16:10:55.028Z,51.10
2019-05-03T16:13:25.188Z,51.80
2019-05-03T16:15:55.293Z,51.30
2019-05-03T16:18:24.677Z,51.50
2019-05-03T16:20:54.612Z,51.40
2019-05-03T16:23:25.086Z,53.00
2019-05-03T16:25:54.423Z,56.50
2019-05-03T16:28:30.946Z,59.80
2019-05-03T16:31:01.314Z,60.90
2019-05-03T16:33:30.140Z,64.00
2019-05-03T16:35:59.122Z,64.60
2019-05-03T16:38:27.856Z,68.50
2019-05-03T16:40:56.648Z,69.20
2019-05-03T16:43:25.766Z,70.10
2019-05-03T16:45:55.130Z,74.00
2019-05-03T16:48:24.702Z,72.90
2019-05-03T16:50:53.587Z,71.50
2019-05-03T16:53:22.295Z,77.90
2019-05-03T16:55:51.072Z,77.50
2019-05-03T16:58:20.179Z,76.00
2019-05-03T17:00:49.007Z,76.50
2019-05-03T17:03:19.352Z,77.20
2019-05-03T17:05:49.980Z,77.80
2019-05-03T17:08:26.513Z,79.20
2019-05-03T17:10:59.775Z,77.80
2019-05-03T17:13:28.499Z,79.30
2019-05-03T17:15:57.310Z,79.40
2019-05-03T17:18:26.012Z,79.10
2019-05-03T17:20:54.842Z,81.90
2019-05-03T17:23:24.608Z,81.30
2019-05-03T17:25:53.460Z,80.80
2019-05-03T17:28:22.178Z,81.50
2019-05-03T17:30:50.943Z,83.90
2019-05-03T17:33:19.835Z,81.70
2019-05-03T17:35:48.534Z,82.80
2019-05-03T17:38:17.540Z,81.70
2019-05-03T17:40:50.965Z,81.50
2019-05-03T17:43:26.895Z,80.50
2019-05-03T17:46:00.153Z,82.80
2019-05-03T17:48:28.889Z,77.00
2019-05-03T17:50:57.823Z,78.20
2019-05-03T17:53:31.127Z,81.50
2019-05-03T17:56:13.032Z,76.00
2019-05-03T17:58:58.337Z,78.00
2019-05-03T18:01:38.228Z,78.80
2019-05-03T18:04:20.508Z,78.40
2019-05-03T18:07:04.560Z,80.90
2019-05-03T18:09:34.924Z,82.60
2019-05-03T18:12:05.525Z,77.40
2019-05-03T18:14:34.555Z,80.50
2019-05-03T18:17:05.520Z,75.70
2019-05-03T18:19:34.340Z,79.90
2019-05-03T18:22:05.038Z,82.30
2019-05-03T18:24:35.214Z,80.30
2019-05-03T18:27:04.892Z,81.60
2019-05-03T18:29:34.642Z,75.40
2019-05-03T18:32:05.495Z,77.80
2019-05-03T18:34:34.329Z,78.50
2019-05-03T18:37:04.811Z,77.70
2019-05-03T18:39:34.703Z,78.90
2019-05-03T18:42:05.095Z,76.90
2019-05-03T18:44:55.127Z,82.30
2019-05-03T18:47:25.227Z,80.70
2019-05-03T18:49:54.984Z,80.70
2019-05-03T18:52:23.943Z,77.70
2019-05-03T18:54:52.855Z,79.20
2019-05-03T18:57:22.771Z,76.40
2019-05-03T18:59:51.534Z,78.80
2019-05-03T19:02:20.565Z,80.00
2019-05-03T19:04:51.168Z,80.70
2019-05-03T19:07:37.249Z,76.60
2019-05-03T19:10:15.359Z,80.40
2019-05-03T19:12:52.007Z,82.80
2019-05-03T19:15:20.717Z,80.50
2019-05-03T19:17:58.552Z,82.70
2019-05-03T19:20:27.484Z,79.80
2019-05-03T19:22:56.283Z,82.30
2019-05-03T19:25:25.551Z,80.90
2019-05-03T19:27:54.919Z,82.90
2019-05-03T19:30:24.461Z,82.80
2019-05-03T19:32:55.063Z,82.90
2019-05-03T19:35:27.282Z,83.60
2019-05-03T19:37:55.488Z,81.00
2019-05-03T19:40:25.579Z,82.00
2019-05-03T19:42:55.190Z,81.50
2019-05-03T19:45:24.811Z,82.30
2019-05-03T19:47:55.248Z,82.80
2019-05-03T19:50:26.954Z,83.50
2019-05-03T19:52:59.121Z,82.50
2019-05-03T19:55:27.859Z,81.80
2019-05-03T19:57:57.589Z,82.10
2019-05-03T20:00:27.872Z,80.20
2019-05-03T20:03:04.964Z,82.40
2019-05-03T20:05:36.022Z,81.60
2019-05-03T20:08:06.486Z,81.10
2019-05-03T20:10:35.419Z,80.80
2019-05-03T20:13:04.917Z,82.90
2019-05-03T20:15:33.622Z,80.10
2019-05-03T20:18:02.348Z,79.90
2019-05-03T20:20:31.186Z,83.10
2019-05-03T20:23:00.115Z,82.40
2019-05-03T20:25:28.835Z,82.90
2019-05-03T20:27:57.857Z,81.40
2019-05-03T20:30:26.564Z,82.70
2019-05-03T20:32:55.596Z,81.40
2019-05-03T20:35:25.142Z,82.30
2019-05-03T20:37:55.360Z,82.70
2019-05-03T20:40:25.563Z,82.20
2019-05-03T20:42:56.115Z,83.50
2019-05-03T20:45:38.319Z,82.90
2019-05-03T20:48:08.661Z,83.00
2019-05-03T20:50:37.403Z,82.70
2019-05-03T20:53:06.138Z,82.70
2019-05-03T20:55:34.907Z,82.90
2019-05-03T20:58:06.552Z,83.00
2019-05-03T21:00:35.499Z,82.80
2019-05-03T21:03:04.927Z,82.80
2019-05-03T21:05:35.380Z,82.80
2019-05-03T21:08:05.563Z,82.30
2019-05-03T21:10:34.598Z,82.30
2019-05-03T21:13:05.271Z,82.60
2019-05-03T21:15:37.999Z,82.20
2019-05-03T21:18:11.034Z,82.00
2019-05-03T21:20:45.053Z,82.50
2019-05-03T21:23:21.284Z,82.80
2019-05-03T21:26:09.468Z,83.10
2019-05-03T21:28:31.193Z,83.20
2019-05-03T21:30:59.922Z,83.40
2019-05-03T21:33:28.628Z,83.60
2019-05-03T21:35:57.422Z,83.00
2019-05-03T21:38:26.143Z,83.50
2019-05-03T21:40:54.870Z,83.80
2019-05-03T21:43:25.584Z,83.80
2019-05-03T21:45:55.554Z,83.90
2019-05-03T21:48:25.854Z,83.80
2019-05-03T21:50:54.818Z,83.50
2019-05-03T21:53:25.120Z,83.40
2019-05-03T21:55:53.998Z,83.00
2019-05-03T21:58:24.539Z,83.50
2019-05-03T22:00:54.828Z,83.70
2019-05-03T22:03:25.295Z,83.10
2019-05-03T22:05:55.972Z,83.20
2019-05-03T22:08:24.854Z,82.90
2019-05-03T22:10:55.373Z,82.60
2019-05-03T22:13:24.564Z,82.60
2019-05-03T22:15:58.149Z,83.10
2019-05-03T22:18:28.367Z,82.70
2019-05-03T22:21:05.544Z,82.50
2019-05-03T22:23:45.289Z,82.10
2019-05-03T22:26:15.465Z,81.60
2019-05-03T22:28:44.928Z,82.00
2019-05-03T22:31:15.330Z,81.70
2019-05-03T22:33:46.110Z,81.60
2019-05-03T22:36:14.984Z,82.30
2019-05-03T22:38:45.358Z,82.90
2019-05-03T22:41:14.829Z,82.90
2019-05-03T22:43:45.547Z,82.70
2019-05-03T22:46:14.561Z,83.10
2019-05-03T22:48:44.944Z,83.40
2019-05-03T22:51:15.137Z,83.40
2019-05-03T22:53:44.877Z,83.60
2019-05-03T22:56:14.423Z,82.80
2019-05-03T22:58:43.387Z,82.00
2019-05-03T23:01:12.110Z,82.30
2019-05-03T23:03:44.886Z,81.90
2019-05-03T23:06:20.367Z,80.00
2019-05-03T23:08:44.254Z,81.00
2019-05-03T23:11:13.040Z,80.70
2019-05-03T23:13:41.774Z,80.70
2019-05-03T23:16:10.630Z,80.40
2019-05-03T23:18:39.401Z,80.60
2019-05-03T23:21:21.686Z,80.90
2019-05-03T23:23:51.821Z,80.40
2019-05-03T23:26:20.553Z,80.90
2019-05-03T23:28:49.452Z,81.00
2019-05-03T23:31:18.659Z,80.70
2019-05-03T23:33:48.473Z,80.70
2019-05-03T23:36:17.259Z,80.00
2019-05-03T23:38:46.119Z,79.70
2019-05-03T23:41:15.327Z,79.30
2019-05-03T23:43:45.188Z,79.60
2019-05-03T23:46:16.574Z,79.30
2019-05-03T23:48:45.305Z,79.10
2019-05-03T23:51:15.603Z,79.00
2019-05-03T23:53:44.748Z,78.40
2019-05-03T23:56:17.869Z,79.10
2019-05-03T23:58:46.577Z,78.30
